Terminal Aerodrome Forecast
Issued by NWS

Home | Current Version | Previous Version | Text Only | Print | Product List | Glossary On
Versions: 1 2 3 4 5 6 7 8 9 10 11 12 13 14 15 16 17 18 19 20
000
FTUS46 KMTR 231100
TAFMRY
TAF
KMRY 231122Z 2312/2412 20005KT P6SM OVC009
     FM231700 25005KT P6SM SCT015
     FM232100 26010KT P6SM FEW015
     FM240200 22006KT P6SM BKN012
     FM240500 VRB03KT P6SM OVC008=

USA.gov is the U.S. government's official web portal to all federal, state and local government web resources and services.